sensor_id;sensor_type;location;lat;lon;timestamp;P1;durP1;ratioP1;P2;durP2;ratioP2
15393;SDS011;7795;47.986;11.868;2023-05-16T00:02:27;2.00;;;1.90;;
15393;SDS011;7795;47.986;11.868;2023-05-16T00:04:52;3.20;;;2.20;;
15393;SDS011;7795;47.986;11.868;2023-05-16T00:07:18;1.73;;;1.63;;
15393;SDS011;7795;47.986;11.868;2023-05-16T00:09:44;2.93;;;1.90;;
15393;SDS011;7795;47.986;11.868;2023-05-16T00:12:10;2.30;;;2.10;;
15393;SDS011;7795;47.986;11.868;2023-05-16T00:14:35;1.70;;;1.60;;
15393;SDS011;7795;47.986;11.868;2023-05-16T00:17:01;2.37;;;1.50;;
15393;SDS011;7795;47.986;11.868;2023-05-16T00:19:36;2.43;;;1.80;;
15393;SDS011;7795;47.986;11.868;2023-05-16T00:22:06;2.47;;;2.00;;
15393;SDS011;7795;47.986;11.868;2023-05-16T00:24:32;1.77;;;1.67;;
15393;SDS011;7795;47.986;11.868;2023-05-16T00:26:58;1.67;;;1.57;;
15393;SDS011;7795;47.986;11.868;2023-05-16T00:29:24;1.80;;;1.70;;
15393;SDS011;7795;47.986;11.868;2023-05-16T00:31:50;2.07;;;1.60;;
15393;SDS011;7795;47.986;11.868;2023-05-16T00:34:16;4.77;;;1.77;;
15393;SDS011;7795;47.986;11.868;2023-05-16T00:36:43;1.80;;;1.70;;
15393;SDS011;7795;47.986;11.868;2023-05-16T00:39:08;2.43;;;2.00;;
15393;SDS011;7795;47.986;11.868;2023-05-16T00:41:35;2.97;;;2.13;;
15393;SDS011;7795;47.986;11.868;2023-05-16T00:44:02;1.70;;;1.60;;
15393;SDS011;7795;47.986;11.868;2023-05-16T00:46:27;1.57;;;1.47;;
15393;SDS011;7795;47.986;11.868;2023-05-16T00:48:53;2.00;;;1.80;;
15393;SDS011;7795;47.986;11.868;2023-05-16T00:51:19;1.93;;;1.73;;
15393;SDS011;7795;47.986;11.868;2023-05-16T00:53:46;1.60;;;1.50;;
15393;SDS011;7795;47.986;11.868;2023-05-16T00:56:12;2.17;;;1.90;;
15393;SDS011;7795;47.986;11.868;2023-05-16T00:58:38;1.90;;;1.80;;
15393;SDS011;7795;47.986;11.868;2023-05-16T01:01:04;1.50;;;1.40;;
15393;SDS011;7795;47.986;11.868;2023-05-16T01:03:30;1.90;;;1.47;;
15393;SDS011;7795;47.986;11.868;2023-05-16T01:05:56;1.83;;;1.70;;
15393;SDS011;7795;47.986;11.868;2023-05-16T01:08:22;2.00;;;1.90;;
15393;SDS011;7795;47.986;11.868;2023-05-16T01:10:57;1.90;;;1.73;;
15393;SDS011;7795;47.986;11.868;2023-05-16T01:13:28;1.60;;;1.50;;
15393;SDS011;7795;47.986;11.868;2023-05-16T01:16:03;2.20;;;2.00;;
15393;SDS011;7795;47.986;11.868;2023-05-16T01:18:35;3.07;;;2.50;;
15393;SDS011;7795;47.986;11.868;2023-05-16T01:21:08;4.10;;;2.90;;
15393;SDS011;7795;47.986;11.868;2023-05-16T01:23:39;4.73;;;4.03;;
15393;SDS011;7795;47.986;11.868;2023-05-16T01:26:17;4.43;;;3.30;;
15393;SDS011;7795;47.986;11.868;2023-05-16T01:28:45;3.40;;;3.10;;
15393;SDS011;7795;47.986;11.868;2023-05-16T01:31:12;4.60;;;3.00;;
15393;SDS011;7795;47.986;11.868;2023-05-16T01:33:37;4.30;;;2.60;;
15393;SDS011;7795;47.986;11.868;2023-05-16T01:36:05;2.90;;;2.13;;
15393;SDS011;7795;47.986;11.868;2023-05-16T01:38:39;4.87;;;2.83;;
15393;SDS011;7795;47.986;11.868;2023-05-16T01:41:11;3.23;;;2.90;;
15393;SDS011;7795;47.986;11.868;2023-05-16T01:43:43;3.50;;;3.20;;
15393;SDS011;7795;47.986;11.868;2023-05-16T01:46:13;4.30;;;3.90;;
15393;SDS011;7795;47.986;11.868;2023-05-16T01:48:42;4.73;;;3.67;;
15393;SDS011;7795;47.986;11.868;2023-05-16T01:51:15;4.47;;;3.50;;
15393;SDS011;7795;47.986;11.868;2023-05-16T01:53:41;3.27;;;2.93;;
15393;SDS011;7795;47.986;11.868;2023-05-16T01:56:10;3.20;;;2.87;;
15393;SDS011;7795;47.986;11.868;2023-05-16T01:58:39;4.47;;;2.87;;
15393;SDS011;7795;47.986;11.868;2023-05-16T02:01:07;3.57;;;3.27;;
15393;SDS011;7795;47.986;11.868;2023-05-16T02:03:32;3.23;;;2.77;;
15393;SDS011;7795;47.986;11.868;2023-05-16T02:05:58;4.23;;;3.20;;
15393;SDS011;7795;47.986;11.868;2023-05-16T02:08:25;3.30;;;2.77;;
15393;SDS011;7795;47.986;11.868;2023-05-16T02:10:52;3.17;;;2.87;;
15393;SDS011;7795;47.986;11.868;2023-05-16T02:13:21;3.20;;;2.90;;
15393;SDS011;7795;47.986;11.868;2023-05-16T02:15:47;2.63;;;2.40;;
15393;SDS011;7795;47.986;11.868;2023-05-16T02:18:14;3.13;;;2.83;;
15393;SDS011;7795;47.986;11.868;2023-05-16T02:20:40;3.43;;;2.73;;
15393;SDS011;7795;47.986;11.868;2023-05-16T02:23:06;3.80;;;2.80;;
15393;SDS011;7795;47.986;11.868;2023-05-16T02:25:32;2.50;;;2.30;;
15393;SDS011;7795;47.986;11.868;2023-05-16T02:27:58;3.37;;;3.07;;
15393;SDS011;7795;47.986;11.868;2023-05-16T02:30:23;2.57;;;2.33;;
15393;SDS011;7795;47.986;11.868;2023-05-16T02:32:49;2.13;;;1.97;;
15393;SDS011;7795;47.986;11.868;2023-05-16T02:35:18;3.60;;;2.63;;
15393;SDS011;7795;47.986;11.868;2023-05-16T02:37:44;2.77;;;2.57;;
15393;SDS011;7795;47.986;11.868;2023-05-16T02:40:10;2.73;;;2.53;;
15393;SDS011;7795;47.986;11.868;2023-05-16T02:42:37;2.90;;;2.70;;
15393;SDS011;7795;47.986;11.868;2023-05-16T02:45:03;2.57;;;2.37;;
15393;SDS011;7795;47.986;11.868;2023-05-16T02:47:29;2.13;;;1.93;;
15393;SDS011;7795;47.986;11.868;2023-05-16T02:49:55;2.67;;;2.23;;
15393;SDS011;7795;47.986;11.868;2023-05-16T02:52:22;2.63;;;2.20;;
15393;SDS011;7795;47.986;11.868;2023-05-16T02:54:48;3.17;;;2.80;;
15393;SDS011;7795;47.986;11.868;2023-05-16T02:57:14;4.93;;;3.80;;
15393;SDS011;7795;47.986;11.868;2023-05-16T02:59:40;5.63;;;4.10;;
15393;SDS011;7795;47.986;11.868;2023-05-16T03:02:06;5.90;;;3.80;;
15393;SDS011;7795;47.986;11.868;2023-05-16T03:04:32;4.33;;;3.47;;
15393;SDS011;7795;47.986;11.868;2023-05-16T03:06:58;4.73;;;3.20;;
15393;SDS011;7795;47.986;11.868;2023-05-16T03:09:26;5.10;;;3.80;;
15393;SDS011;7795;47.986;11.868;2023-05-16T03:11:51;3.80;;;2.90;;
15393;SDS011;7795;47.986;11.868;2023-05-16T03:14:17;3.40;;;2.57;;
15393;SDS011;7795;47.986;11.868;2023-05-16T03:16:43;4.30;;;2.83;;
15393;SDS011;7795;47.986;11.868;2023-05-16T03:19:10;3.27;;;2.97;;
15393;SDS011;7795;47.986;11.868;2023-05-16T03:21:35;5.70;;;2.87;;
15393;SDS011;7795;47.986;11.868;2023-05-16T03:24:01;5.80;;;3.20;;
15393;SDS011;7795;47.986;11.868;2023-05-16T03:26:29;4.87;;;2.87;;
15393;SDS011;7795;47.986;11.868;2023-05-16T03:28:55;4.10;;;3.13;;
15393;SDS011;7795;47.986;11.868;2023-05-16T03:31:20;4.30;;;2.93;;
15393;SDS011;7795;47.986;11.868;2023-05-16T03:33:46;3.00;;;2.70;;
15393;SDS011;7795;47.986;11.868;2023-05-16T03:36:12;2.83;;;2.50;;
15393;SDS011;7795;47.986;11.868;2023-05-16T03:38:37;4.03;;;3.00;;
15393;SDS011;7795;47.986;11.868;2023-05-16T03:41:03;3.23;;;2.80;;
15393;SDS011;7795;47.986;11.868;2023-05-16T03:43:31;3.53;;;2.90;;
15393;SDS011;7795;47.986;11.868;2023-05-16T03:45:56;3.07;;;2.77;;
15393;SDS011;7795;47.986;11.868;2023-05-16T03:48:22;3.40;;;3.10;;
15393;SDS011;7795;47.986;11.868;2023-05-16T03:50:48;2.90;;;2.70;;
15393;SDS011;7795;47.986;11.868;2023-05-16T03:53:15;3.53;;;2.80;;
15393;SDS011;7795;47.986;11.868;2023-05-16T03:55:41;5.00;;;3.27;;
15393;SDS011;7795;47.986;11.868;2023-05-16T03:58:07;4.57;;;3.30;;
15393;SDS011;7795;47.986;11.868;2023-05-16T04:00:34;5.93;;;3.27;;
15393;SDS011;7795;47.986;11.868;2023-05-16T04:03:00;3.03;;;2.73;;
15393;SDS011;7795;47.986;11.868;2023-05-16T04:05:26;4.03;;;2.80;;
15393;SDS011;7795;47.986;11.868;2023-05-16T04:07:53;3.57;;;3.17;;
15393;SDS011;7795;47.986;11.868;2023-05-16T04:10:19;3.83;;;2.90;;
15393;SDS011;7795;47.986;11.868;2023-05-16T04:12:45;4.10;;;2.90;;
15393;SDS011;7795;47.986;11.868;2023-05-16T04:15:10;3.57;;;3.20;;
15393;SDS011;7795;47.986;11.868;2023-05-16T04:17:38;5.23;;;3.80;;
15393;SDS011;7795;47.986;11.868;2023-05-16T04:20:04;3.90;;;3.33;;
15393;SDS011;7795;47.986;11.868;2023-05-16T04:22:31;4.50;;;4.07;;
15393;SDS011;7795;47.986;11.868;2023-05-16T04:24:56;5.43;;;4.43;;
15393;SDS011;7795;47.986;11.868;2023-05-16T04:27:22;5.10;;;4.60;;
15393;SDS011;7795;47.986;11.868;2023-05-16T04:29:48;4.50;;;4.10;;
15393;SDS011;7795;47.986;11.868;2023-05-16T04:32:14;6.30;;;4.23;;
15393;SDS011;7795;47.986;11.868;2023-05-16T04:34:42;4.93;;;4.17;;
15393;SDS011;7795;47.986;11.868;2023-05-16T04:37:10;4.83;;;4.33;;
15393;SDS011;7795;47.986;11.868;2023-05-16T04:39:36;5.57;;;4.97;;
15393;SDS011;7795;47.986;11.868;2023-05-16T04:42:02;3.83;;;3.40;;
15393;SDS011;7795;47.986;11.868;2023-05-16T04:44:28;4.80;;;3.87;;
15393;SDS011;7795;47.986;11.868;2023-05-16T04:46:54;4.53;;;3.97;;
15393;SDS011;7795;47.986;11.868;2023-05-16T04:49:20;4.67;;;3.43;;
15393;SDS011;7795;47.986;11.868;2023-05-16T04:51:48;5.13;;;3.77;;
15393;SDS011;7795;47.986;11.868;2023-05-16T04:54:14;5.00;;;4.30;;
15393;SDS011;7795;47.986;11.868;2023-05-16T04:56:39;4.97;;;4.47;;
15393;SDS011;7795;47.986;11.868;2023-05-16T04:59:05;4.83;;;4.23;;
15393;SDS011;7795;47.986;11.868;2023-05-16T05:01:31;6.93;;;4.80;;
15393;SDS011;7795;47.986;11.868;2023-05-16T05:03:57;6.70;;;5.47;;
15393;SDS011;7795;47.986;11.868;2023-05-16T05:06:22;9.93;;;7.87;;
15393;SDS011;7795;47.986;11.868;2023-05-16T05:08:49;12.07;;;9.97;;
15393;SDS011;7795;47.986;11.868;2023-05-16T05:11:15;13.47;;;10.27;;
15393;SDS011;7795;47.986;11.868;2023-05-16T05:13:41;12.10;;;10.50;;
15393;SDS011;7795;47.986;11.868;2023-05-16T05:16:07;12.03;;;8.77;;
15393;SDS011;7795;47.986;11.868;2023-05-16T05:18:33;9.07;;;7.43;;
15393;SDS011;7795;47.986;11.868;2023-05-16T05:20:58;9.37;;;6.87;;
15393;SDS011;7795;47.986;11.868;2023-05-16T05:23:24;9.57;;;8.10;;
15393;SDS011;7795;47.986;11.868;2023-05-16T05:25:54;9.17;;;7.03;;
15393;SDS011;7795;47.986;11.868;2023-05-16T05:28:20;7.17;;;5.40;;
15393;SDS011;7795;47.986;11.868;2023-05-16T05:30:45;5.40;;;4.90;;
15393;SDS011;7795;47.986;11.868;2023-05-16T05:33:12;5.33;;;4.73;;
15393;SDS011;7795;47.986;11.868;2023-05-16T05:35:40;4.77;;;4.27;;
15393;SDS011;7795;47.986;11.868;2023-05-16T05:38:06;7.43;;;4.80;;
15393;SDS011;7795;47.986;11.868;2023-05-16T05:40:32;6.57;;;4.97;;
15393;SDS011;7795;47.986;11.868;2023-05-16T05:42:59;7.53;;;5.60;;
15393;SDS011;7795;47.986;11.868;2023-05-16T05:45:25;5.13;;;4.63;;
15393;SDS011;7795;47.986;11.868;2023-05-16T05:47:51;6.37;;;5.03;;
15393;SDS011;7795;47.986;11.868;2023-05-16T05:50:17;5.40;;;4.40;;
15393;SDS011;7795;47.986;11.868;2023-05-16T05:52:42;6.57;;;5.40;;
15393;SDS011;7795;47.986;11.868;2023-05-16T05:55:08;5.80;;;5.23;;
15393;SDS011;7795;47.986;11.868;2023-05-16T05:57:34;6.63;;;5.37;;
15393;SDS011;7795;47.986;11.868;2023-05-16T06:00:01;5.43;;;4.87;;
15393;SDS011;7795;47.986;11.868;2023-05-16T06:02:29;5.10;;;4.60;;
15393;SDS011;7795;47.986;11.868;2023-05-16T06:04:54;5.77;;;5.17;;
15393;SDS011;7795;47.986;11.868;2023-05-16T06:07:20;5.77;;;5.10;;
15393;SDS011;7795;47.986;11.868;2023-05-16T06:09:46;6.40;;;5.17;;
15393;SDS011;7795;47.986;11.868;2023-05-16T06:12:12;6.43;;;5.33;;
15393;SDS011;7795;47.986;11.868;2023-05-16T06:14:38;5.90;;;5.30;;
15393;SDS011;7795;47.986;11.868;2023-05-16T06:17:05;7.40;;;5.67;;
15393;SDS011;7795;47.986;11.868;2023-05-16T06:19:31;7.57;;;5.67;;
15393;SDS011;7795;47.986;11.868;2023-05-16T06:21:56;5.97;;;5.37;;
15393;SDS011;7795;47.986;11.868;2023-05-16T06:24:22;5.33;;;4.83;;
15393;SDS011;7795;47.986;11.868;2023-05-16T06:26:48;6.83;;;6.10;;
15393;SDS011;7795;47.986;11.868;2023-05-16T06:29:14;7.30;;;6.60;;
15393;SDS011;7795;47.986;11.868;2023-05-16T06:31:41;8.40;;;6.00;;
15393;SDS011;7795;47.986;11.868;2023-05-16T06:34:08;6.13;;;5.53;;
15393;SDS011;7795;47.986;11.868;2023-05-16T06:36:33;8.97;;;6.63;;
15393;SDS011;7795;47.986;11.868;2023-05-16T06:38:59;9.37;;;6.43;;
15393;SDS011;7795;47.986;11.868;2023-05-16T06:41:25;6.43;;;5.70;;
15393;SDS011;7795;47.986;11.868;2023-05-16T06:43:51;6.20;;;5.60;;
15393;SDS011;7795;47.986;11.868;2023-05-16T06:46:17;8.07;;;6.57;;
15393;SDS011;7795;47.986;11.868;2023-05-16T06:48:42;9.60;;;6.50;;
15393;SDS011;7795;47.986;11.868;2023-05-16T06:51:09;8.20;;;6.33;;
15393;SDS011;7795;47.986;11.868;2023-05-16T06:53:35;6.83;;;5.90;;
15393;SDS011;7795;47.986;11.868;2023-05-16T06:56:01;7.67;;;6.80;;
15393;SDS011;7795;47.986;11.868;2023-05-16T06:58:27;7.73;;;6.83;;
15393;SDS011;7795;47.986;11.868;2023-05-16T07:00:53;8.70;;;6.07;;
15393;SDS011;7795;47.986;11.868;2023-05-16T07:03:19;6.97;;;6.27;;
15393;SDS011;7795;47.986;11.868;2023-05-16T07:05:45;7.60;;;6.87;;
15393;SDS011;7795;47.986;11.868;2023-05-16T07:08:12;6.07;;;5.47;;
15393;SDS011;7795;47.986;11.868;2023-05-16T07:10:38;6.43;;;5.83;;
15393;SDS011;7795;47.986;11.868;2023-05-16T07:13:04;6.43;;;5.83;;
15393;SDS011;7795;47.986;11.868;2023-05-16T07:15:30;6.83;;;6.23;;
15393;SDS011;7795;47.986;11.868;2023-05-16T07:17:56;7.77;;;6.93;;
15393;SDS011;7795;47.986;11.868;2023-05-16T07:20:22;6.47;;;5.87;;
15393;SDS011;7795;47.986;11.868;2023-05-16T07:22:48;8.17;;;7.33;;
15393;SDS011;7795;47.986;11.868;2023-05-16T07:25:15;7.87;;;6.43;;
15393;SDS011;7795;47.986;11.868;2023-05-16T07:27:41;7.77;;;6.97;;
15393;SDS011;7795;47.986;11.868;2023-05-16T07:30:09;6.93;;;6.33;;
15393;SDS011;7795;47.986;11.868;2023-05-16T07:32:36;7.07;;;6.37;;
15393;SDS011;7795;47.986;11.868;2023-05-16T07:35:02;7.60;;;6.90;;
15393;SDS011;7795;47.986;11.868;2023-05-16T07:37:28;7.90;;;6.90;;
15393;SDS011;7795;47.986;11.868;2023-05-16T07:39:54;8.73;;;7.70;;
15393;SDS011;7795;47.986;11.868;2023-05-16T07:42:21;7.73;;;6.37;;
15393;SDS011;7795;47.986;11.868;2023-05-16T07:44:47;7.70;;;6.87;;
15393;SDS011;7795;47.986;11.868;2023-05-16T07:47:13;7.87;;;7.17;;
15393;SDS011;7795;47.986;11.868;2023-05-16T07:49:39;8.50;;;7.70;;
15393;SDS011;7795;47.986;11.868;2023-05-16T07:52:05;9.10;;;7.20;;
15393;SDS011;7795;47.986;11.868;2023-05-16T07:54:31;9.30;;;7.10;;
15393;SDS011;7795;47.986;11.868;2023-05-16T07:56:58;8.90;;;6.83;;
15393;SDS011;7795;47.986;11.868;2023-05-16T07:59:26;9.10;;;7.33;;
15393;SDS011;7795;47.986;11.868;2023-05-16T08:01:52;8.47;;;7.67;;
15393;SDS011;7795;47.986;11.868;2023-05-16T08:04:19;8.80;;;7.70;;
15393;SDS011;7795;47.986;11.868;2023-05-16T08:06:45;7.63;;;6.93;;
15393;SDS011;7795;47.986;11.868;2023-05-16T08:09:11;8.30;;;6.83;;
15393;SDS011;7795;47.986;11.868;2023-05-16T08:11:37;8.20;;;7.20;;
15393;SDS011;7795;47.986;11.868;2023-05-16T08:14:04;11.40;;;7.50;;
15393;SDS011;7795;47.986;11.868;2023-05-16T08:16:31;12.70;;;7.47;;
15393;SDS011;7795;47.986;11.868;2023-05-16T08:18:57;7.93;;;7.13;;
15393;SDS011;7795;47.986;11.868;2023-05-16T08:21:23;8.23;;;7.23;;
15393;SDS011;7795;47.986;11.868;2023-05-16T08:23:49;10.20;;;8.37;;
15393;SDS011;7795;47.986;11.868;2023-05-16T08:26:16;8.47;;;7.63;;
15393;SDS011;7795;47.986;11.868;2023-05-16T08:28:42;10.30;;;8.23;;
15393;SDS011;7795;47.986;11.868;2023-05-16T08:31:08;8.77;;;7.80;;
15393;SDS011;7795;47.986;11.868;2023-05-16T08:33:35;8.90;;;7.87;;
15393;SDS011;7795;47.986;11.868;2023-05-16T08:36:00;9.27;;;8.37;;
15393;SDS011;7795;47.986;11.868;2023-05-16T08:38:27;9.13;;;8.27;;
15393;SDS011;7795;47.986;11.868;2023-05-16T08:40:52;9.93;;;8.57;;
15393;SDS011;7795;47.986;11.868;2023-05-16T08:43:18;11.63;;;9.30;;
15393;SDS011;7795;47.986;11.868;2023-05-16T08:45:44;9.30;;;8.40;;
15393;SDS011;7795;47.986;11.868;2023-05-16T08:48:10;9.40;;;8.27;;
15393;SDS011;7795;47.986;11.868;2023-05-16T08:50:37;8.90;;;8.10;;
15393;SDS011;7795;47.986;11.868;2023-05-16T08:53:04;8.83;;;8.03;;
15393;SDS011;7795;47.986;11.868;2023-05-16T08:55:32;8.43;;;7.60;;
15393;SDS011;7795;47.986;11.868;2023-05-16T08:57:59;8.53;;;7.73;;
15393;SDS011;7795;47.986;11.868;2023-05-16T09:00:26;8.83;;;7.80;;
15393;SDS011;7795;47.986;11.868;2023-05-16T09:02:52;8.77;;;7.87;;
15393;SDS011;7795;47.986;11.868;2023-05-16T09:05:18;9.10;;;7.27;;
15393;SDS011;7795;47.986;11.868;2023-05-16T09:07:48;8.17;;;7.40;;
15393;SDS011;7795;47.986;11.868;2023-05-16T09:10:14;9.30;;;8.33;;
15393;SDS011;7795;47.986;11.868;2023-05-16T09:12:40;8.00;;;7.20;;
15393;SDS011;7795;47.986;11.868;2023-05-16T09:15:08;8.10;;;7.30;;
15393;SDS011;7795;47.986;11.868;2023-05-16T09:17:35;7.73;;;6.93;;
15393;SDS011;7795;47.986;11.868;2023-05-16T09:20:07;7.60;;;6.87;;
15393;SDS011;7795;47.986;11.868;2023-05-16T09:22:34;9.27;;;7.13;;
15393;SDS011;7795;47.986;11.868;2023-05-16T09:25:01;8.40;;;6.93;;
15393;SDS011;7795;47.986;11.868;2023-05-16T09:27:29;8.40;;;7.67;;
15393;SDS011;7795;47.986;11.868;2023-05-16T09:29:56;8.63;;;7.67;;
15393;SDS011;7795;47.986;11.868;2023-05-16T09:32:23;9.53;;;7.53;;
15393;SDS011;7795;47.986;11.868;2023-05-16T09:34:49;7.13;;;6.43;;
15393;SDS011;7795;47.986;11.868;2023-05-16T09:37:16;7.63;;;6.93;;
15393;SDS011;7795;47.986;11.868;2023-05-16T09:39:44;8.67;;;7.77;;
15393;SDS011;7795;47.986;11.868;2023-05-16T09:42:15;7.90;;;7.00;;
15393;SDS011;7795;47.986;11.868;2023-05-16T09:44:44;8.80;;;7.63;;
15393;SDS011;7795;47.986;11.868;2023-05-16T09:47:13;7.90;;;7.17;;
15393;SDS011;7795;47.986;11.868;2023-05-16T09:49:39;8.33;;;7.53;;
15393;SDS011;7795;47.986;11.868;2023-05-16T09:52:05;8.20;;;7.40;;
15393;SDS011;7795;47.986;11.868;2023-05-16T09:54:31;7.80;;;7.00;;
15393;SDS011;7795;47.986;11.868;2023-05-16T09:56:57;11.33;;;6.97;;
15393;SDS011;7795;47.986;11.868;2023-05-16T09:59:27;7.40;;;6.80;;
15393;SDS011;7795;47.986;11.868;2023-05-16T10:01:53;8.03;;;7.23;;
15393;SDS011;7795;47.986;11.868;2023-05-16T10:04:21;9.73;;;7.37;;
15393;SDS011;7795;47.986;11.868;2023-05-16T10:06:47;8.37;;;7.57;;
15393;SDS011;7795;47.986;11.868;2023-05-16T10:09:16;7.53;;;6.90;;
15393;SDS011;7795;47.986;11.868;2023-05-16T10:11:43;8.40;;;7.60;;
15393;SDS011;7795;47.986;11.868;2023-05-16T10:14:10;9.60;;;7.83;;
15393;SDS011;7795;47.986;11.868;2023-05-16T10:16:40;9.13;;;7.20;;
15393;SDS011;7795;47.986;11.868;2023-05-16T10:19:07;9.20;;;7.20;;
15393;SDS011;7795;47.986;11.868;2023-05-16T10:21:33;8.73;;;7.93;;
15393;SDS011;7795;47.986;11.868;2023-05-16T10:24:02;8.80;;;7.77;;
15393;SDS011;7795;47.986;11.868;2023-05-16T10:26:30;8.67;;;7.40;;
15393;SDS011;7795;47.986;11.868;2023-05-16T10:28:58;8.43;;;7.57;;
15393;SDS011;7795;47.986;11.868;2023-05-16T10:31:24;7.67;;;6.97;;
15393;SDS011;7795;47.986;11.868;2023-05-16T10:33:52;10.33;;;7.10;;
15393;SDS011;7795;47.986;11.868;2023-05-16T10:36:18;8.33;;;7.27;;
15393;SDS011;7795;47.986;11.868;2023-05-16T10:38:44;8.67;;;7.07;;
15393;SDS011;7795;47.986;11.868;2023-05-16T10:41:11;8.70;;;7.77;;
15393;SDS011;7795;47.986;11.868;2023-05-16T10:43:37;8.70;;;7.90;;
15393;SDS011;7795;47.986;11.868;2023-05-16T10:46:04;7.63;;;7.03;;
15393;SDS011;7795;47.986;11.868;2023-05-16T10:48:32;8.57;;;7.77;;
15393;SDS011;7795;47.986;11.868;2023-05-16T10:51:01;8.17;;;7.47;;
15393;SDS011;7795;47.986;11.868;2023-05-16T10:53:30;8.33;;;7.63;;
15393;SDS011;7795;47.986;11.868;2023-05-16T10:56:07;9.00;;;8.10;;
15393;SDS011;7795;47.986;11.868;2023-05-16T10:58:39;8.87;;;8.13;;
15393;SDS011;7795;47.986;11.868;2023-05-16T11:01:18;9.30;;;8.40;;
15393;SDS011;7795;47.986;11.868;2023-05-16T11:04:08;10.03;;;8.60;;
15393;SDS011;7795;47.986;11.868;2023-05-16T11:06:44;9.47;;;8.67;;
15393;SDS011;7795;47.986;11.868;2023-05-16T11:09:18;9.17;;;8.30;;
15393;SDS011;7795;47.986;11.868;2023-05-16T11:11:56;9.70;;;8.80;;
15393;SDS011;7795;47.986;11.868;2023-05-16T11:14:27;9.40;;;8.47;;
15393;SDS011;7795;47.986;11.868;2023-05-16T11:17:01;9.97;;;8.97;;
15393;SDS011;7795;47.986;11.868;2023-05-16T11:19:32;9.40;;;8.50;;
15393;SDS011;7795;47.986;11.868;2023-05-16T11:22:07;9.80;;;8.90;;
15393;SDS011;7795;47.986;11.868;2023-05-16T11:24:54;10.17;;;9.27;;
15393;SDS011;7795;47.986;11.868;2023-05-16T11:27:23;10.20;;;9.27;;
15393;SDS011;7795;47.986;11.868;2023-05-16T11:29:50;9.77;;;8.87;;
15393;SDS011;7795;47.986;11.868;2023-05-16T11:32:18;10.83;;;9.93;;
15393;SDS011;7795;47.986;11.868;2023-05-16T11:34:46;10.87;;;9.87;;
15393;SDS011;7795;47.986;11.868;2023-05-16T11:37:13;10.30;;;9.37;;
15393;SDS011;7795;47.986;11.868;2023-05-16T11:39:39;10.70;;;9.80;;
15393;SDS011;7795;47.986;11.868;2023-05-16T11:42:05;10.10;;;9.20;;
15393;SDS011;7795;47.986;11.868;2023-05-16T11:44:31;10.40;;;9.30;;
15393;SDS011;7795;47.986;11.868;2023-05-16T11:46:59;9.60;;;8.70;;
15393;SDS011;7795;47.986;11.868;2023-05-16T11:49:26;9.93;;;9.03;;
15393;SDS011;7795;47.986;11.868;2023-05-16T11:51:52;8.70;;;7.80;;
15393;SDS011;7795;47.986;11.868;2023-05-16T11:54:20;9.57;;;8.67;;
15393;SDS011;7795;47.986;11.868;2023-05-16T11:56:46;9.37;;;8.57;;
15393;SDS011;7795;47.986;11.868;2023-05-16T11:59:11;10.17;;;9.27;;
15393;SDS011;7795;47.986;11.868;2023-05-16T12:01:38;10.63;;;9.63;;
15393;SDS011;7795;47.986;11.868;2023-05-16T12:04:06;11.03;;;10.13;;
15393;SDS011;7795;47.986;11.868;2023-05-16T12:06:33;10.90;;;9.80;;
15393;SDS011;7795;47.986;11.868;2023-05-16T12:08:58;11.60;;;9.50;;
15393;SDS011;7795;47.986;11.868;2023-05-16T12:11:29;10.53;;;9.63;;
15393;SDS011;7795;47.986;11.868;2023-05-16T12:13:55;9.97;;;9.07;;
15393;SDS011;7795;47.986;11.868;2023-05-16T12:16:21;10.27;;;9.40;;
15393;SDS011;7795;47.986;11.868;2023-05-16T12:18:47;10.80;;;9.90;;
15393;SDS011;7795;47.986;11.868;2023-05-16T12:21:14;10.47;;;9.40;;
15393;SDS011;7795;47.986;11.868;2023-05-16T12:23:40;10.13;;;9.07;;
15393;SDS011;7795;47.986;11.868;2023-05-16T12:26:07;10.63;;;9.70;;
15393;SDS011;7795;47.986;11.868;2023-05-16T12:28:34;11.27;;;9.03;;
15393;SDS011;7795;47.986;11.868;2023-05-16T12:31:02;9.90;;;9.03;;
15393;SDS011;7795;47.986;11.868;2023-05-16T12:33:28;9.87;;;8.90;;
15393;SDS011;7795;47.986;11.868;2023-05-16T12:35:54;9.60;;;8.80;;
15393;SDS011;7795;47.986;11.868;2023-05-16T12:38:20;8.87;;;7.97;;
15393;SDS011;7795;47.986;11.868;2023-05-16T12:40:50;8.80;;;8.00;;
15393;SDS011;7795;47.986;11.868;2023-05-16T12:43:22;9.00;;;8.20;;
15393;SDS011;7795;47.986;11.868;2023-05-16T12:45:49;10.47;;;9.47;;
15393;SDS011;7795;47.986;11.868;2023-05-16T12:48:19;9.47;;;8.63;;
15393;SDS011;7795;47.986;11.868;2023-05-16T12:50:45;10.43;;;8.47;;
15393;SDS011;7795;47.986;11.868;2023-05-16T12:53:12;11.50;;;10.30;;
15393;SDS011;7795;47.986;11.868;2023-05-16T12:55:38;10.40;;;9.40;;
15393;SDS011;7795;47.986;11.868;2023-05-16T12:58:04;10.10;;;9.00;;
15393;SDS011;7795;47.986;11.868;2023-05-16T13:00:30;9.30;;;8.53;;
15393;SDS011;7795;47.986;11.868;2023-05-16T13:02:57;9.87;;;9.07;;
15393;SDS011;7795;47.986;11.868;2023-05-16T13:05:23;7.60;;;6.90;;
15393;SDS011;7795;47.986;11.868;2023-05-16T13:07:49;7.23;;;6.53;;
15393;SDS011;7795;47.986;11.868;2023-05-16T13:10:18;7.13;;;6.43;;
15393;SDS011;7795;47.986;11.868;2023-05-16T13:12:44;7.13;;;6.27;;
15393;SDS011;7795;47.986;11.868;2023-05-16T13:15:11;5.90;;;5.40;;
15393;SDS011;7795;47.986;11.868;2023-05-16T13:17:38;6.30;;;5.80;;
15393;SDS011;7795;47.986;11.868;2023-05-16T13:20:06;6.07;;;5.57;;
15393;SDS011;7795;47.986;11.868;2023-05-16T13:22:34;6.43;;;5.50;;
15393;SDS011;7795;47.986;11.868;2023-05-16T13:25:00;6.33;;;5.73;;
15393;SDS011;7795;47.986;11.868;2023-05-16T13:27:26;6.23;;;5.73;;
15393;SDS011;7795;47.986;11.868;2023-05-16T13:29:52;6.90;;;6.30;;
15393;SDS011;7795;47.986;11.868;2023-05-16T13:32:17;6.67;;;6.10;;
15393;SDS011;7795;47.986;11.868;2023-05-16T13:34:43;6.80;;;6.20;;
15393;SDS011;7795;47.986;11.868;2023-05-16T13:37:10;6.13;;;5.53;;
15393;SDS011;7795;47.986;11.868;2023-05-16T13:39:36;5.67;;;5.10;;
15393;SDS011;7795;47.986;11.868;2023-05-16T13:42:02;5.90;;;5.30;;
15393;SDS011;7795;47.986;11.868;2023-05-16T13:44:28;9.90;;;6.47;;
15393;SDS011;7795;47.986;11.868;2023-05-16T13:46:54;5.93;;;5.43;;
15393;SDS011;7795;47.986;11.868;2023-05-16T13:49:21;5.87;;;5.27;;
15393;SDS011;7795;47.986;11.868;2023-05-16T13:51:47;7.07;;;6.37;;
15393;SDS011;7795;47.986;11.868;2023-05-16T13:54:15;7.40;;;6.73;;
15393;SDS011;7795;47.986;11.868;2023-05-16T13:56:41;7.90;;;7.17;;
15393;SDS011;7795;47.986;11.868;2023-05-16T13:59:07;8.50;;;7.73;;
15393;SDS011;7795;47.986;11.868;2023-05-16T14:01:32;8.40;;;7.60;;
15393;SDS011;7795;47.986;11.868;2023-05-16T14:03:58;8.93;;;8.23;;
15393;SDS011;7795;47.986;11.868;2023-05-16T14:06:24;9.47;;;8.57;;
15393;SDS011;7795;47.986;11.868;2023-05-16T14:08:50;8.60;;;7.80;;
15393;SDS011;7795;47.986;11.868;2023-05-16T14:11:17;8.90;;;8.20;;
15393;SDS011;7795;47.986;11.868;2023-05-16T14:13:43;9.70;;;8.80;;
15393;SDS011;7795;47.986;11.868;2023-05-16T14:16:10;10.47;;;9.53;;
15393;SDS011;7795;47.986;11.868;2023-05-16T14:18:36;11.07;;;10.10;;
15393;SDS011;7795;47.986;11.868;2023-05-16T14:21:02;10.13;;;9.23;;
15393;SDS011;7795;47.986;11.868;2023-05-16T14:23:27;10.67;;;9.77;;
15393;SDS011;7795;47.986;11.868;2023-05-16T14:25:53;10.30;;;9.30;;
15393;SDS011;7795;47.986;11.868;2023-05-16T14:28:21;10.70;;;9.70;;
15393;SDS011;7795;47.986;11.868;2023-05-16T14:30:47;8.00;;;7.30;;
15393;SDS011;7795;47.986;11.868;2023-05-16T14:33:13;7.50;;;5.97;;
15393;SDS011;7795;47.986;11.868;2023-05-16T14:35:38;6.17;;;5.63;;
15393;SDS011;7795;47.986;11.868;2023-05-16T14:38:05;5.63;;;4.53;;
15393;SDS011;7795;47.986;11.868;2023-05-16T14:40:31;4.67;;;4.23;;
15393;SDS011;7795;47.986;11.868;2023-05-16T14:42:58;4.40;;;4.00;;
15393;SDS011;7795;47.986;11.868;2023-05-16T14:45:25;4.40;;;4.00;;